sensor_id;sensor_type;location;lat;lon;timestamp;P1;durP1;ratioP1;P2;durP2;ratioP2
45033;SDS011;30771;47.988;-4.186;2022-09-23T06:02:47;39.90;;;27.10;;
45033;SDS011;30771;47.988;-4.186;2022-09-23T06:05:13;38.25;;;26.77;;
45033;SDS011;30771;47.988;-4.186;2022-09-23T06:07:38;31.35;;;24.55;;
45033;SDS011;30771;47.988;-4.186;2022-09-23T06:10:03;39.30;;;25.83;;
45033;SDS011;30771;47.988;-4.186;2022-09-23T06:12:29;39.45;;;27.70;;
45033;SDS011;30771;47.988;-4.186;2022-09-23T06:14:54;43.05;;;29.73;;
45033;SDS011;30771;47.988;-4.186;2022-09-23T06:17:20;42.88;;;29.83;;
45033;SDS011;30771;47.988;-4.186;2022-09-23T06:19:45;51.05;;;33.03;;
45033;SDS011;30771;47.988;-4.186;2022-09-23T06:22:10;46.67;;;31.02;;
45033;SDS011;30771;47.988;-4.186;2022-09-23T06:24:35;48.08;;;32.03;;
45033;SDS011;30771;47.988;-4.186;2022-09-23T06:27:01;53.25;;;34.03;;
45033;SDS011;30771;47.988;-4.186;2022-09-23T06:29:26;52.78;;;34.42;;
45033;SDS011;30771;47.988;-4.186;2022-09-23T06:31:51;50.40;;;34.15;;
45033;SDS011;30771;47.988;-4.186;2022-09-23T06:34:16;48.92;;;33.42;;
45033;SDS011;30771;47.988;-4.186;2022-09-23T06:36:42;47.30;;;32.45;;
45033;SDS011;30771;47.988;-4.186;2022-09-23T06:39:07;47.15;;;32.53;;
45033;SDS011;30771;47.988;-4.186;2022-09-23T06:41:33;46.88;;;32.72;;
45033;SDS011;30771;47.988;-4.186;2022-09-23T06:43:58;55.92;;;33.35;;
45033;SDS011;30771;47.988;-4.186;2022-09-23T06:46:23;55.38;;;35.10;;
45033;SDS011;30771;47.988;-4.186;2022-09-23T06:48:48;56.05;;;36.30;;
45033;SDS011;30771;47.988;-4.186;2022-09-23T06:51:14;56.85;;;36.35;;
45033;SDS011;30771;47.988;-4.186;2022-09-23T06:53:39;50.80;;;34.72;;
45033;SDS011;30771;47.988;-4.186;2022-09-23T06:56:05;49.97;;;34.38;;
45033;SDS011;30771;47.988;-4.186;2022-09-23T06:58:33;48.83;;;32.53;;
45033;SDS011;30771;47.988;-4.186;2022-09-23T07:01:20;51.83;;;34.75;;
45033;SDS011;30771;47.988;-4.186;2022-09-23T07:03:45;45.42;;;31.50;;
45033;SDS011;30771;47.988;-4.186;2022-09-23T07:06:11;38.17;;;28.20;;
45033;SDS011;30771;47.988;-4.186;2022-09-23T07:08:36;41.90;;;29.88;;
45033;SDS011;30771;47.988;-4.186;2022-09-23T07:11:03;36.90;;;28.08;;
45033;SDS011;30771;47.988;-4.186;2022-09-23T07:13:30;38.63;;;28.33;;
45033;SDS011;30771;47.988;-4.186;2022-09-23T07:15:56;40.47;;;27.77;;
45033;SDS011;30771;47.988;-4.186;2022-09-23T07:18:22;37.83;;;26.55;;
45033;SDS011;30771;47.988;-4.186;2022-09-23T07:20:49;35.85;;;27.65;;
45033;SDS011;30771;47.988;-4.186;2022-09-23T07:23:14;35.95;;;27.70;;
45033;SDS011;30771;47.988;-4.186;2022-09-23T07:25:40;43.60;;;30.30;;
45033;SDS011;30771;47.988;-4.186;2022-09-23T07:28:05;45.13;;;31.15;;
45033;SDS011;30771;47.988;-4.186;2022-09-23T07:30:31;41.10;;;30.10;;
45033;SDS011;30771;47.988;-4.186;2022-09-23T07:32:59;50.42;;;31.13;;
45033;SDS011;30771;47.988;-4.186;2022-09-23T07:35:24;46.35;;;32.08;;
45033;SDS011;30771;47.988;-4.186;2022-09-23T07:37:50;46.67;;;31.55;;
45033;SDS011;30771;47.988;-4.186;2022-09-23T07:40:15;51.33;;;33.75;;
45033;SDS011;30771;47.988;-4.186;2022-09-23T07:42:40;47.22;;;33.17;;
45033;SDS011;30771;47.988;-4.186;2022-09-23T07:45:06;49.95;;;33.33;;
45033;SDS011;30771;47.988;-4.186;2022-09-23T07:47:32;44.10;;;31.73;;
45033;SDS011;30771;47.988;-4.186;2022-09-23T07:49:58;44.78;;;31.75;;
45033;SDS011;30771;47.988;-4.186;2022-09-23T07:52:23;43.50;;;31.02;;
45033;SDS011;30771;47.988;-4.186;2022-09-23T07:54:48;47.47;;;32.88;;
45033;SDS011;30771;47.988;-4.186;2022-09-23T07:57:13;45.28;;;32.00;;
45033;SDS011;30771;47.988;-4.186;2022-09-23T07:59:39;45.17;;;32.37;;
45033;SDS011;30771;47.988;-4.186;2022-09-23T08:02:04;43.10;;;31.00;;
45033;SDS011;30771;47.988;-4.186;2022-09-23T08:04:30;38.92;;;30.02;;
45033;SDS011;30771;47.988;-4.186;2022-09-23T08:06:57;39.40;;;30.00;;
45033;SDS011;30771;47.988;-4.186;2022-09-23T08:09:25;39.00;;;29.98;;
45033;SDS011;30771;47.988;-4.186;2022-09-23T08:11:52;36.22;;;28.33;;
45033;SDS011;30771;47.988;-4.186;2022-09-23T08:14:18;47.45;;;31.52;;
45033;SDS011;30771;47.988;-4.186;2022-09-23T08:16:44;42.90;;;31.40;;
45033;SDS011;30771;47.988;-4.186;2022-09-23T08:19:10;41.20;;;30.08;;
45033;SDS011;30771;47.988;-4.186;2022-09-23T08:21:36;41.28;;;30.85;;
45033;SDS011;30771;47.988;-4.186;2022-09-23T08:24:02;44.17;;;30.42;;
45033;SDS011;30771;47.988;-4.186;2022-09-23T08:26:27;41.13;;;29.42;;
45033;SDS011;30771;47.988;-4.186;2022-09-23T08:28:53;36.65;;;28.73;;
45033;SDS011;30771;47.988;-4.186;2022-09-23T08:31:18;37.78;;;28.45;;
45033;SDS011;30771;47.988;-4.186;2022-09-23T08:33:44;30.45;;;25.38;;
45033;SDS011;30771;47.988;-4.186;2022-09-23T08:36:10;36.72;;;27.23;;
45033;SDS011;30771;47.988;-4.186;2022-09-23T08:38:35;31.05;;;24.92;;
45033;SDS011;30771;47.988;-4.186;2022-09-23T08:41:12;32.42;;;26.45;;
45033;SDS011;30771;47.988;-4.186;2022-09-23T08:44:02;27.50;;;22.08;;
45033;SDS011;30771;47.988;-4.186;2022-09-23T08:46:36;24.38;;;21.75;;
45033;SDS011;30771;47.988;-4.186;2022-09-23T08:49:15;33.88;;;25.20;;
45033;SDS011;30771;47.988;-4.186;2022-09-23T08:51:46;30.60;;;24.42;;
45033;SDS011;30771;47.988;-4.186;2022-09-23T08:54:12;27.63;;;20.33;;
45033;SDS011;30771;47.988;-4.186;2022-09-23T08:56:40;24.88;;;19.77;;
45033;SDS011;30771;47.988;-4.186;2022-09-23T08:59:08;23.55;;;20.27;;
45033;SDS011;30771;47.988;-4.186;2022-09-23T09:01:43;24.48;;;18.63;;
45033;SDS011;30771;47.988;-4.186;2022-09-23T09:04:17;17.77;;;15.98;;
45033;SDS011;30771;47.988;-4.186;2022-09-23T09:09:18;17.02;;;15.00;;
45033;SDS011;30771;47.988;-4.186;2022-09-23T09:12:07;17.90;;;14.55;;
45033;SDS011;30771;47.988;-4.186;2022-09-23T09:14:42;17.52;;;13.85;;
45033;SDS011;30771;47.988;-4.186;2022-09-23T09:17:34;13.73;;;11.73;;
45033;SDS011;30771;47.988;-4.186;2022-09-23T09:20:17;11.40;;;10.30;;
45033;SDS011;30771;47.988;-4.186;2022-09-23T09:23:04;12.90;;;10.10;;
45033;SDS011;30771;47.988;-4.186;2022-09-23T09:25:37;12.88;;;10.27;;
45033;SDS011;30771;47.988;-4.186;2022-09-23T09:28:20;13.23;;;8.90;;
45033;SDS011;30771;47.988;-4.186;2022-09-23T09:30:52;12.98;;;9.55;;
45033;SDS011;30771;47.988;-4.186;2022-09-23T09:33:23;10.10;;;8.98;;
45033;SDS011;30771;47.988;-4.186;2022-09-23T09:36:02;11.07;;;7.50;;
45033;SDS011;30771;47.988;-4.186;2022-09-23T09:38:32;8.93;;;8.00;;
45033;SDS011;30771;47.988;-4.186;2022-09-23T09:40:58;9.75;;;8.43;;
45033;SDS011;30771;47.988;-4.186;2022-09-23T09:43:29;10.25;;;7.60;;
45033;SDS011;30771;47.988;-4.186;2022-09-23T09:49:21;14.23;;;8.93;;
45033;SDS011;30771;47.988;-4.186;2022-09-23T09:52:10;12.40;;;8.50;;
45033;SDS011;30771;47.988;-4.186;2022-09-23T09:54:37;9.80;;;8.20;;
45033;SDS011;30771;47.988;-4.186;2022-09-23T09:57:02;9.93;;;8.10;;
45033;SDS011;30771;47.988;-4.186;2022-09-23T09:59:29;12.27;;;8.15;;
45033;SDS011;30771;47.988;-4.186;2022-09-23T10:02:41;11.65;;;9.05;;
45033;SDS011;30771;47.988;-4.186;2022-09-23T10:04:44;9.02;;;8.13;;
45033;SDS011;30771;47.988;-4.186;2022-09-23T10:07:14;11.02;;;8.73;;
45033;SDS011;30771;47.988;-4.186;2022-09-23T10:09:46;9.48;;;8.55;;
45033;SDS011;30771;47.988;-4.186;2022-09-23T10:12:14;9.10;;;8.20;;
45033;SDS011;30771;47.988;-4.186;2022-09-23T10:14:40;11.55;;;9.05;;
45033;SDS011;30771;47.988;-4.186;2022-09-23T10:17:06;10.30;;;8.85;;
45033;SDS011;30771;47.988;-4.186;2022-09-23T10:19:36;12.88;;;9.15;;
45033;SDS011;30771;47.988;-4.186;2022-09-23T10:22:13;11.57;;;8.68;;
45033;SDS011;30771;47.988;-4.186;2022-09-23T10:24:46;11.77;;;8.02;;
45033;SDS011;30771;47.988;-4.186;2022-09-23T10:27:14;9.95;;;8.20;;
45033;SDS011;30771;47.988;-4.186;2022-09-23T10:29:49;9.40;;;8.20;;
45033;SDS011;30771;47.988;-4.186;2022-09-23T10:34:42;8.87;;;7.97;;
45033;SDS011;30771;47.988;-4.186;2022-09-23T10:37:14;13.30;;;8.07;;
45033;SDS011;30771;47.988;-4.186;2022-09-23T10:39:42;10.18;;;7.32;;
45033;SDS011;30771;47.988;-4.186;2022-09-23T10:42:23;6.38;;;5.75;;
45033;SDS011;30771;47.988;-4.186;2022-09-23T10:47:19;10.80;;;6.00;;
45033;SDS011;30771;47.988;-4.186;2022-09-23T10:52:36;6.50;;;5.88;;
45033;SDS011;30771;47.988;-4.186;2022-09-23T10:57:49;6.13;;;5.50;;
45033;SDS011;30771;47.988;-4.186;2022-09-23T11:00:28;6.70;;;5.07;;
45033;SDS011;30771;47.988;-4.186;2022-09-23T11:11:56;7.80;;;6.13;;
45033;SDS011;30771;47.988;-4.186;2022-09-23T11:17:29;7.97;;;5.57;;
45033;SDS011;30771;47.988;-4.186;2022-09-23T11:30:52;6.10;;;5.15;;
45033;SDS011;30771;47.988;-4.186;2022-09-23T11:36:05;6.38;;;5.70;;
45033;SDS011;30771;47.988;-4.186;2022-09-23T11:38:38;4.50;;;4.10;;
45033;SDS011;30771;47.988;-4.186;2022-09-23T11:41:11;5.72;;;4.50;;
45033;SDS011;30771;47.988;-4.186;2022-09-23T11:43:41;4.20;;;3.80;;
45033;SDS011;30771;47.988;-4.186;2022-09-23T11:54:36;5.25;;;4.47;;
45033;SDS011;30771;47.988;-4.186;2022-09-23T11:57:04;4.85;;;3.67;;
45033;SDS011;30771;47.988;-4.186;2022-09-23T11:59:46;5.50;;;3.58;;
45033;SDS011;30771;47.988;-4.186;2022-09-23T12:03:17;5.22;;;4.22;;
45033;SDS011;30771;47.988;-4.186;2022-09-23T12:05:22;5.32;;;4.00;;
45033;SDS011;30771;47.988;-4.186;2022-09-23T12:10:26;5.72;;;3.88;;
45033;SDS011;30771;47.988;-4.186;2022-09-23T12:13:03;5.85;;;4.10;;
45033;SDS011;30771;47.988;-4.186;2022-09-23T12:21:30;7.32;;;4.30;;
45033;SDS011;30771;47.988;-4.186;2022-09-23T12:27:10;4.03;;;3.17;;
45033;SDS011;30771;47.988;-4.186;2022-09-23T12:29:43;4.35;;;3.10;;
45033;SDS011;30771;47.988;-4.186;2022-09-23T12:32:15;3.22;;;2.80;;
45033;SDS011;30771;47.988;-4.186;2022-09-23T12:34:42;4.32;;;2.78;;
45033;SDS011;30771;47.988;-4.186;2022-09-23T12:37:11;2.65;;;2.40;;
45033;SDS011;30771;47.988;-4.186;2022-09-23T12:39:37;4.13;;;2.50;;
45033;SDS011;30771;47.988;-4.186;2022-09-23T12:42:04;3.50;;;1.80;;
45033;SDS011;30771;47.988;-4.186;2022-09-23T12:44:38;2.08;;;1.40;;
45033;SDS011;30771;47.988;-4.186;2022-09-23T12:49:40;2.33;;;1.75;;
45033;SDS011;30771;47.988;-4.186;2022-09-23T12:54:34;2.15;;;1.83;;
45033;SDS011;30771;47.988;-4.186;2022-09-23T12:57:00;2.22;;;1.77;;
45033;SDS011;30771;47.988;-4.186;2022-09-23T12:59:28;3.35;;;1.65;;
45033;SDS011;30771;47.988;-4.186;2022-09-23T13:01:54;2.57;;;1.80;;
45033;SDS011;30771;47.988;-4.186;2022-09-23T13:04:31;2.60;;;2.00;;
45033;SDS011;30771;47.988;-4.186;2022-09-23T13:07:05;4.38;;;2.30;;
45033;SDS011;30771;47.988;-4.186;2022-09-23T13:09:39;2.85;;;1.90;;
45033;SDS011;30771;47.988;-4.186;2022-09-23T13:15:03;2.03;;;1.58;;
45033;SDS011;30771;47.988;-4.186;2022-09-23T13:17:36;2.75;;;1.92;;
45033;SDS011;30771;47.988;-4.186;2022-09-23T13:20:48;1.90;;;1.70;;
45033;SDS011;30771;47.988;-4.186;2022-09-23T13:23:03;4.15;;;1.90;;
45033;SDS011;30771;47.988;-4.186;2022-09-23T13:25:50;2.28;;;1.80;;
45033;SDS011;30771;47.988;-4.186;2022-09-23T13:28:28;3.05;;;1.52;;
45033;SDS011;30771;47.988;-4.186;2022-09-23T13:30:57;2.60;;;2.00;;
45033;SDS011;30771;47.988;-4.186;2022-09-23T13:33:25;2.90;;;1.60;;
45033;SDS011;30771;47.988;-4.186;2022-09-23T13:35:51;1.95;;;1.63;;
45033;SDS011;30771;47.988;-4.186;2022-09-23T13:38:21;2.45;;;1.50;;
45033;SDS011;30771;47.988;-4.186;2022-09-23T13:40:47;5.15;;;1.55;;
45033;SDS011;30771;47.988;-4.186;2022-09-23T13:43:23;1.88;;;1.60;;
45033;SDS011;30771;47.988;-4.186;2022-09-23T13:45:52;3.13;;;1.30;;
45033;SDS011;30771;47.988;-4.186;2022-09-23T13:48:18;2.60;;;1.50;;
45033;SDS011;30771;47.988;-4.186;2022-09-23T13:50:48;2.90;;;1.45;;
45033;SDS011;30771;47.988;-4.186;2022-09-23T13:53:25;2.92;;;1.70;;
45033;SDS011;30771;47.988;-4.186;2022-09-23T13:56:04;5.75;;;1.95;;
45033;SDS011;30771;47.988;-4.186;2022-09-23T13:58:30;3.42;;;1.60;;
45033;SDS011;30771;47.988;-4.186;2022-09-23T14:00:57;1.80;;;1.20;;
45033;SDS011;30771;47.988;-4.186;2022-09-23T14:05:51;1.77;;;1.40;;
45033;SDS011;30771;47.988;-4.186;2022-09-23T14:08:18;1.42;;;1.02;;
45033;SDS011;30771;47.988;-4.186;2022-09-23T14:10:44;1.55;;;1.40;;
45033;SDS011;30771;47.988;-4.186;2022-09-23T14:13:19;1.42;;;0.90;;
45033;SDS011;30771;47.988;-4.186;2022-09-23T14:15:47;2.00;;;0.85;;
45033;SDS011;30771;47.988;-4.186;2022-09-23T14:18:56;1.52;;;0.90;;
45033;SDS011;30771;47.988;-4.186;2022-09-23T14:21:03;1.02;;;0.85;;
45033;SDS011;30771;47.988;-4.186;2022-09-23T14:23:28;1.58;;;0.70;;
45033;SDS011;30771;47.988;-4.186;2022-09-23T14:25:54;1.33;;;0.95;;
45033;SDS011;30771;47.988;-4.186;2022-09-23T14:28:20;0.80;;;0.60;;
45033;SDS011;30771;47.988;-4.186;2022-09-23T14:30:48;2.25;;;0.80;;
45033;SDS011;30771;47.988;-4.186;2022-09-23T14:33:17;2.17;;;0.52;;
45033;SDS011;30771;47.988;-4.186;2022-09-23T14:35:47;3.58;;;0.63;;
45033;SDS011;30771;47.988;-4.186;2022-09-23T14:38:22;2.25;;;0.68;;
45033;SDS011;30771;47.988;-4.186;2022-09-23T14:40:52;1.17;;;0.60;;
45033;SDS011;30771;47.988;-4.186;2022-09-23T14:43:25;2.10;;;0.60;;
45033;SDS011;30771;47.988;-4.186;2022-09-23T14:45:53;0.52;;;0.50;;
45033;SDS011;30771;47.988;-4.186;2022-09-23T14:48:23;0.85;;;0.50;;
45033;SDS011;30771;47.988;-4.186;2022-09-23T14:50:56;0.57;;;0.55;;
45033;SDS011;30771;47.988;-4.186;2022-09-23T15:03:58;1.23;;;0.40;;
45033;SDS011;30771;47.988;-4.186;2022-09-23T15:06:34;1.27;;;0.73;;
45033;SDS011;30771;47.988;-4.186;2022-09-23T15:09:03;3.38;;;0.90;;
45033;SDS011;30771;47.988;-4.186;2022-09-23T15:11:29;0.90;;;0.80;;
45033;SDS011;30771;47.988;-4.186;2022-09-23T15:13:55;0.93;;;0.85;;
45033;SDS011;30771;47.988;-4.186;2022-09-23T15:16:24;2.05;;;1.00;;
45033;SDS011;30771;47.988;-4.186;2022-09-23T15:18:55;3.13;;;1.05;;
45033;SDS011;30771;47.988;-4.186;2022-09-23T15:21:22;1.17;;;1.08;;
45033;SDS011;30771;47.988;-4.186;2022-09-23T15:23:49;1.80;;;1.40;;
45033;SDS011;30771;47.988;-4.186;2022-09-23T15:26:17;1.70;;;1.60;;
45033;SDS011;30771;47.988;-4.186;2022-09-23T15:31:13;2.35;;;2.13;;
45033;SDS011;30771;47.988;-4.186;2022-09-23T15:33:40;2.75;;;2.20;;
45033;SDS011;30771;47.988;-4.186;2022-09-23T15:36:18;4.15;;;2.50;;
45033;SDS011;30771;47.988;-4.186;2022-09-23T15:38:45;2.92;;;2.63;;
45033;SDS011;30771;47.988;-4.186;2022-09-23T15:41:11;4.32;;;2.90;;
45033;SDS011;30771;47.988;-4.186;2022-09-23T15:43:38;4.50;;;3.33;;
45033;SDS011;30771;47.988;-4.186;2022-09-23T15:46:04;4.88;;;3.90;;
45033;SDS011;30771;47.988;-4.186;2022-09-23T15:49:04;4.63;;;3.33;;
45033;SDS011;30771;47.988;-4.186;2022-09-23T15:51:33;6.13;;;4.43;;
45033;SDS011;30771;47.988;-4.186;2022-09-23T15:53:59;6.13;;;3.53;;
45033;SDS011;30771;47.988;-4.186;2022-09-23T15:56:24;5.43;;;3.95;;
45033;SDS011;30771;47.988;-4.186;2022-09-23T15:58:49;4.50;;;3.08;;
45033;SDS011;30771;47.988;-4.186;2022-09-23T16:01:28;5.43;;;2.58;;
45033;SDS011;30771;47.988;-4.186;2022-09-23T16:03:55;5.03;;;2.85;;
45033;SDS011;30771;47.988;-4.186;2022-09-23T16:06:20;3.58;;;2.60;;
45033;SDS011;30771;47.988;-4.186;2022-09-23T16:08:46;4.38;;;2.80;;
45033;SDS011;30771;47.988;-4.186;2022-09-23T16:11:19;4.25;;;3.00;;
45033;SDS011;30771;47.988;-4.186;2022-09-23T16:13:47;4.55;;;2.38;;
45033;SDS011;30771;47.988;-4.186;2022-09-23T16:16:12;4.43;;;2.47;;
45033;SDS011;30771;47.988;-4.186;2022-09-23T16:18:38;4.55;;;2.45;;
45033;SDS011;30771;47.988;-4.186;2022-09-23T16:21:03;4.80;;;2.38;;
45033;SDS011;30771;47.988;-4.186;2022-09-23T16:23:29;4.30;;;2.40;;
45033;SDS011;30771;47.988;-4.186;2022-09-23T16:25:57;5.55;;;2.70;;
45033;SDS011;30771;47.988;-4.186;2022-09-23T16:28:22;5.13;;;2.42;;
45033;SDS011;30771;47.988;-4.186;2022-09-23T16:30:47;4.50;;;2.30;;
45033;SDS011;30771;47.988;-4.186;2022-09-23T16:33:12;3.92;;;2.17;;
45033;SDS011;30771;47.988;-4.186;2022-09-23T16:35:38;5.40;;;2.70;;
45033;SDS011;30771;47.988;-4.186;2022-09-23T16:38:03;4.93;;;2.20;;
45033;SDS011;30771;47.988;-4.186;2022-09-23T16:40:28;5.95;;;2.47;;
45033;SDS011;30771;47.988;-4.186;2022-09-23T16:42:53;5.55;;;2.85;;
45033;SDS011;30771;47.988;-4.186;2022-09-23T16:45:19;3.38;;;1.80;;
45033;SDS011;30771;47.988;-4.186;2022-09-23T16:47:46;5.65;;;1.85;;
45033;SDS011;30771;47.988;-4.186;2022-09-23T16:50:12;4.55;;;2.25;;
45033;SDS011;30771;47.988;-4.186;2022-09-23T16:52:40;2.15;;;1.40;;
45033;SDS011;30771;47.988;-4.186;2022-09-23T16:55:06;4.35;;;1.60;;
45033;SDS011;30771;47.988;-4.186;2022-09-23T16:57:32;3.28;;;1.40;;
45033;SDS011;30771;47.988;-4.186;2022-09-23T16:59:57;3.90;;;1.48;;
45033;SDS011;30771;47.988;-4.186;2022-09-23T17:02:22;4.00;;;1.38;;
45033;SDS011;30771;47.988;-4.186;2022-09-23T17:04:48;4.07;;;1.23;;
45033;SDS011;30771;47.988;-4.186;2022-09-23T17:07:13;4.65;;;1.50;;
45033;SDS011;30771;47.988;-4.186;2022-09-23T17:09:38;8.90;;;1.92;;
45033;SDS011;30771;47.988;-4.186;2022-09-23T17:12:15;4.18;;;1.50;;
45033;SDS011;30771;47.988;-4.186;2022-09-23T17:14:48;7.00;;;1.65;;
45033;SDS011;30771;47.988;-4.186;2022-09-23T17:17:14;3.80;;;1.92;;
45033;SDS011;30771;47.988;-4.186;2022-09-23T17:19:39;3.88;;;1.60;;
45033;SDS011;30771;47.988;-4.186;2022-09-23T17:22:04;4.78;;;1.48;;
45033;SDS011;30771;47.988;-4.186;2022-09-23T17:24:29;5.53;;;1.70;;
45033;SDS011;30771;47.988;-4.186;2022-09-23T17:26:55;6.80;;;2.92;;
45033;SDS011;30771;47.988;-4.186;2022-09-23T17:29:20;4.10;;;1.90;;
45033;SDS011;30771;47.988;-4.186;2022-09-23T17:31:45;4.30;;;2.03;;
45033;SDS011;30771;47.988;-4.186;2022-09-23T17:34:11;5.00;;;1.40;;
45033;SDS011;30771;47.988;-4.186;2022-09-23T17:36:36;3.83;;;1.67;;
45033;SDS011;30771;47.988;-4.186;2022-09-23T17:39:01;4.05;;;1.75;;
45033;SDS011;30771;47.988;-4.186;2022-09-23T17:41:26;4.95;;;1.90;;
45033;SDS011;30771;47.988;-4.186;2022-09-23T17:43:52;3.47;;;2.00;;
45033;SDS011;30771;47.988;-4.186;2022-09-23T17:46:19;7.88;;;2.90;;
45033;SDS011;30771;47.988;-4.186;2022-09-23T17:48:44;5.00;;;2.50;;
45033;SDS011;30771;47.988;-4.186;2022-09-23T17:51:10;4.38;;;2.28;;
45033;SDS011;30771;47.988;-4.186;2022-09-23T17:53:38;4.43;;;2.88;;
45033;SDS011;30771;47.988;-4.186;2022-09-23T17:56:07;6.90;;;3.20;;
45033;SDS011;30771;47.988;-4.186;2022-09-23T17:58:38;5.78;;;3.00;;
45033;SDS011;30771;47.988;-4.186;2022-09-23T18:01:03;5.07;;;3.15;;
45033;SDS011;30771;47.988;-4.186;2022-09-23T18:03:32;5.40;;;3.45;;
45033;SDS011;30771;47.988;-4.186;2022-09-23T18:06:05;6.20;;;3.78;;
45033;SDS011;30771;47.988;-4.186;2022-09-23T18:08:31;7.95;;;4.35;;
45033;SDS011;30771;47.988;-4.186;2022-09-23T18:10:56;8.98;;;4.13;;
45033;SDS011;30771;47.988;-4.186;2022-09-23T18:13:22;5.72;;;4.38;;
45033;SDS011;30771;47.988;-4.186;2022-09-23T18:15:47;6.38;;;4.20;;
45033;SDS011;30771;47.988;-4.186;2022-09-23T18:18:12;10.02;;;5.35;;
45033;SDS011;30771;47.988;-4.186;2022-09-23T18:20:38;8.45;;;5.05;;
45033;SDS011;30771;47.988;-4.186;2022-09-23T18:23:03;9.95;;;6.15;;
45033;SDS011;30771;47.988;-4.186;2022-09-23T18:25:28;9.98;;;6.38;;
45033;SDS011;30771;47.988;-4.186;2022-09-23T18:27:56;9.57;;;6.20;;
45033;SDS011;30771;47.988;-4.186;2022-09-23T18:30:22;9.43;;;6.50;;
45033;SDS011;30771;47.988;-4.186;2022-09-23T18:32:47;12.93;;;7.03;;
45033;SDS011;30771;47.988;-4.186;2022-09-23T18:35:12;10.35;;;7.32;;
45033;SDS011;30771;47.988;-4.186;2022-09-23T18:37:38;10.45;;;7.72;;
45033;SDS011;30771;47.988;-4.186;2022-09-23T18:40:03;10.10;;;7.63;;
45033;SDS011;30771;47.988;-4.186;2022-09-23T18:42:29;9.55;;;7.53;;
45033;SDS011;30771;47.988;-4.186;2022-09-23T18:44:54;11.80;;;8.68;;
45033;SDS011;30771;47.988;-4.186;2022-09-23T18:47:19;10.98;;;9.10;;
45033;SDS011;30771;47.988;-4.186;2022-09-23T18:49:45;12.82;;;9.82;;
45033;SDS011;30771;47.988;-4.186;2022-09-23T18:52:10;14.23;;;9.43;;
45033;SDS011;30771;47.988;-4.186;2022-09-23T18:54:35;15.50;;;9.07;;
45033;SDS011;30771;47.988;-4.186;2022-09-23T18:57:00;13.57;;;9.07;;
45033;SDS011;30771;47.988;-4.186;2022-09-23T18:59:26;13.68;;;8.85;;
45033;SDS011;30771;47.988;-4.186;2022-09-23T19:01:51;12.52;;;8.65;;
45033;SDS011;30771;47.988;-4.186;2022-09-23T19:04:18;11.60;;;8.70;;
45033;SDS011;30771;47.988;-4.186;2022-09-23T19:06:44;13.07;;;8.88;;
45033;SDS011;30771;47.988;-4.186;2022-09-23T19:09:10;17.92;;;9.32;;
45033;SDS011;30771;47.988;-4.186;2022-09-23T19:11:36;11.07;;;9.30;;
45033;SDS011;30771;47.988;-4.186;2022-09-23T19:14:03;10.98;;;9.40;;
45033;SDS011;30771;47.988;-4.186;2022-09-23T19:16:30;13.35;;;9.70;;
45033;SDS011;30771;47.988;-4.186;2022-09-23T19:18:56;14.00;;;9.63;;
45033;SDS011;30771;47.988;-4.186;2022-09-23T19:21:22;13.18;;;10.07;;
45033;SDS011;30771;47.988;-4.186;2022-09-23T19:23:48;14.80;;;10.40;;
45033;SDS011;30771;47.988;-4.186;2022-09-23T19:26:17;16.33;;;10.43;;
45033;SDS011;30771;47.988;-4.186;2022-09-23T19:28:48;19.13;;;10.52;;
45033;SDS011;30771;47.988;-4.186;2022-09-23T19:31:15;12.65;;;10.52;;
45033;SDS011;30771;47.988;-4.186;2022-09-23T19:33:43;13.68;;;10.45;;
45033;SDS011;30771;47.988;-4.186;2022-09-23T19:36:08;17.00;;;10.98;;
45033;SDS011;30771;47.988;-4.186;2022-09-23T19:38:35;14.88;;;12.15;;
45033;SDS011;30771;47.988;-4.186;2022-09-23T19:41:01;19.10;;;12.15;;
45033;SDS011;30771;47.988;-4.186;2022-09-23T19:43:28;15.25;;;13.10;;
45033;SDS011;30771;47.988;-4.186;2022-09-23T19:45:53;17.42;;;13.23;;
45033;SDS011;30771;47.988;-4.186;2022-09-23T19:48:19;14.77;;;12.77;;
45033;SDS011;30771;47.988;-4.186;2022-09-23T19:50:47;18.83;;;13.95;;
45033;SDS011;30771;47.988;-4.186;2022-09-23T19:53:13;18.20;;;13.10;;
45033;SDS011;30771;47.988;-4.186;2022-09-23T19:55:39;17.60;;;13.00;;
45033;SDS011;30771;47.988;-4.186;2022-09-23T19:58:04;20.63;;;13.32;;
45033;SDS011;30771;47.988;-4.186;2022-09-23T20:00:30;20.25;;;13.52;;
45033;SDS011;30771;47.988;-4.186;2022-09-23T20:02:56;19.42;;;14.48;;
45033;SDS011;30771;47.988;-4.186;2022-09-23T20:05:22;18.10;;;14.18;;
45033;SDS011;30771;47.988;-4.186;2022-09-23T20:07:48;17.42;;;13.00;;
45033;SDS011;30771;47.988;-4.186;2022-09-23T20:10:13;28.05;;;14.55;;
45033;SDS011;30771;47.988;-4.186;2022-09-23T20:12:39;23.15;;;14.63;;
45033;SDS011;30771;47.988;-4.186;2022-09-23T20:15:04;21.17;;;14.30;;
45033;SDS011;30771;47.988;-4.186;2022-09-23T20:17:30;19.00;;;13.82;;
45033;SDS011;30771;47.988;-4.186;2022-09-23T20:19:56;17.25;;;13.75;;
45033;SDS011;30771;47.988;-4.186;2022-09-23T20:22:22;20.27;;;12.18;;
45033;SDS011;30771;47.988;-4.186;2022-09-23T20:24:47;21.00;;;13.02;;
45033;SDS011;30771;47.988;-4.186;2022-09-23T20:27:12;25.10;;;11.80;;
45033;SDS011;30771;47.988;-4.186;2022-09-23T20:29:37;18.75;;;11.57;;
45033;SDS011;30771;47.988;-4.186;2022-09-23T20:32:03;19.63;;;11.82;;
45033;SDS011;30771;47.988;-4.186;2022-09-23T20:34:28;20.35;;;10.50;;
45033;SDS011;30771;47.988;-4.186;2022-09-23T20:36:54;18.60;;;9.43;;
45033;SDS011;30771;47.988;-4.186;2022-09-23T20:39:19;17.40;;;8.48;;
45033;SDS011;30771;47.988;-4.186;2022-09-23T20:41:44;13.70;;;7.50;;
45033;SDS011;30771;47.988;-4.186;2022-09-23T20:44:11;20.38;;;6.70;;
45033;SDS011;30771;47.988;-4.186;2022-09-23T20:46:36;14.00;;;6.90;;
45033;SDS011;30771;47.988;-4.186;2022-09-23T20:49:02;16.10;;;5.93;;
45033;SDS011;30771;47.988;-4.186;2022-09-23T20:51:28;12.10;;;5.43;;
45033;SDS011;30771;47.988;-4.186;2022-09-23T20:53:53;13.45;;;5.18;;
45033;SDS011;30771;47.988;-4.186;2022-09-23T20:56:19;10.82;;;5.10;;
45033;SDS011;30771;47.988;-4.186;2022-09-23T20:58:45;15.80;;;5.07;;
45033;SDS011;30771;47.988;-4.186;2022-09-23T21:01:10;10.40;;;4.68;;
45033;SDS011;30771;47.988;-4.186;2022-09-23T21:03:39;10.23;;;4.25;;
45033;SDS011;30771;47.988;-4.186;2022-09-23T21:06:07;10.85;;;4.15;;
45033;SDS011;30771;47.988;-4.186;2022-09-23T21:08:34;13.55;;;5.07;;
45033;SDS011;30771;47.988;-4.186;2022-09-23T21:11:02;12.20;;;4.00;;
45033;SDS011;30771;47.988;-4.186;2022-09-23T21:13:29;15.27;;;3.60;;
45033;SDS011;30771;47.988;-4.186;2022-09-23T21:16:00;14.60;;;3.45;;
45033;SDS011;30771;47.988;-4.186;2022-09-23T21:18:26;9.02;;;3.25;;
45033;SDS011;30771;47.988;-4.186;2022-09-23T21:20:54;9.82;;;3.40;;
45033;SDS011;30771;47.988;-4.186;2022-09-23T21:23:24;9.43;;;2.83;;
45033;SDS011;30771;47.988;-4.186;2022-09-23T21:25:50;12.48;;;3.15;;
45033;SDS011;30771;47.988;-4.186;2022-09-23T21:28:16;11.48;;;2.50;;
45033;SDS011;30771;47.988;-4.186;2022-09-23T21:30:41;9.68;;;2.55;;
45033;SDS011;30771;47.988;-4.186;2022-09-23T21:33:06;9.75;;;2.58;;
45033;SDS011;30771;47.988;-4.186;2022-09-23T21:35:31;7.90;;;2.35;;
45033;SDS011;30771;47.988;-4.186;2022-09-23T21:37:58;9.55;;;2.20;;
45033;SDS011;30771;47.988;-4.186;2022-09-23T21:40:24;19.00;;;2.78;;
45033;SDS011;30771;47.988;-4.186;2022-09-23T21:42:49;12.88;;;3.00;;
45033;SDS011;30771;47.988;-4.186;2022-09-23T21:45:14;12.10;;;2.50;;
45033;SDS011;30771;47.988;-4.186;2022-09-23T21:47:39;11.23;;;2.38;;
45033;SDS011;30771;47.988;-4.186;2022-09-23T21:50:05;10.98;;;2.38;;
45033;SDS011;30771;47.988;-4.186;2022-09-23T21:52:31;8.27;;;2.33;;
45033;SDS011;30771;47.988;-4.186;2022-09-23T21:54:56;16.95;;;2.95;;
45033;SDS011;30771;47.988;-4.186;2022-09-23T21:57:21;13.63;;;2.70;;